Time;durP1;ratioP1;P1;durP2;ratioP2;P2;SDS_P1;SDS_P2;PMS_P1;PMS_P2;Temp;Humidity;BMP_temperature;BMP_pressure;BME280_temperature;BME280_humidity;BME280_pressure;Samples;Min_cycle;Max_cycle;Signal;HPM_P1;HPM_P2
2022/04/19 00:00:44;;;;;;;4.05;2.83;;;;;;;;;;4982331;28;20215;-88
2022/04/19 00:03:11;;;;;;;4.00;3.20;;;;;;;;;;4981064;28;20195;-87
2022/04/19 00:05:37;;;;;;;3.80;2.83;;;;;;;;;;4979030;28;20188;-87
2022/04/19 00:08:04;;;;;;;6.53;3.85;;;;;;;;;;4983556;28;20186;-87
2022/04/19 00:10:30;;;;;;;6.65;4.25;;;;;;;;;;4980172;28;20192;-87
2022/04/19 00:12:56;;;;;;;6.43;3.38;;;;;;;;;;4980534;28;20211;-87
2022/04/19 00:15:23;;;;;;;4.78;2.85;;;;;;;;;;4980169;28;20207;-87
2022/04/19 00:17:49;;;;;;;5.00;3.58;;;;;;;;;;4980991;28;20187;-87
2022/04/19 00:20:15;;;;;;;6.28;3.20;;;;;;;;;;4983288;28;20555;-87
2022/04/19 00:22:41;;;;;;;4.70;3.10;;;;;;;;;;4983599;28;20176;-87
2022/04/19 00:25:07;;;;;;;5.45;3.50;;;;;;;;;;4980273;28;20192;-86
2022/04/19 00:27:34;;;;;;;3.22;2.50;;;;;;;;;;4981080;28;20215;-86
2022/04/19 00:30:00;;;;;;;3.67;2.85;;;;;;;;;;4979924;28;20196;-86
2022/04/19 00:32:26;;;;;;;4.18;2.85;;;;;;;;;;4982378;28;20295;-86
2022/04/19 00:34:52;;;;;;;6.05;3.63;;;;;;;;;;4982712;28;20208;-86
2022/04/19 00:37:19;;;;;;;3.75;2.60;;;;;;;;;;4982507;28;20245;-86
2022/04/19 00:39:45;;;;;;;4.47;2.72;;;;;;;;;;4979712;28;20180;-86
2022/04/19 00:42:11;;;;;;;4.18;2.97;;;;;;;;;;4981687;28;20188;-86
2022/04/19 00:44:41;;;;;;;8.13;2.97;;;;;;;;;;4972418;28;20210;-87
2022/04/19 00:47:09;;;;;;;4.20;3.20;;;;;;;;;;4983762;28;20203;-87
2022/04/19 00:49:36;;;;;;;4.80;3.20;;;;;;;;;;4982323;28;20179;-88
2022/04/19 00:52:02;;;;;;;4.15;2.80;;;;;;;;;;4977865;28;20202;-87
2022/04/19 00:54:30;;;;;;;3.85;3.00;;;;;;;;;;4980877;28;20203;-88
2022/04/19 00:56:56;;;;;;;6.10;3.63;;;;;;;;;;4980993;28;20562;-88
2022/04/19 00:59:24;;;;;;;4.95;3.20;;;;;;;;;;4981091;28;20183;-89
2022/04/19 01:01:50;;;;;;;4.07;2.80;;;;;;;;;;4981977;28;20180;-87
2022/04/19 01:04:16;;;;;;;6.13;2.58;;;;;;;;;;4980588;28;20202;-88
2022/04/19 01:06:42;;;;;;;3.40;2.55;;;;;;;;;;4988086;28;20180;-87
2022/04/19 01:09:08;;;;;;;3.10;2.20;;;;;;;;;;4979310;28;20199;-87
2022/04/19 01:14:20;;;;;;;3.65;2.55;;;;;;;;;;4982345;28;20210;-88
2022/04/19 01:16:46;;;;;;;4.07;2.10;;;;;;;;;;4983086;28;20191;-88
2022/04/19 01:19:16;;;;;;;4.20;2.70;;;;;;;;;;4985777;28;20198;-88
2022/04/19 01:21:46;;;;;;;2.63;2.38;;;;;;;;;;4985930;28;20249;-88
2022/04/19 01:24:16;;;;;;;3.10;2.80;;;;;;;;;;4971753;28;20192;-87
2022/04/19 01:26:42;;;;;;;2.85;2.55;;;;;;;;;;4983843;28;20673;-88
2022/04/19 01:29:09;;;;;;;3.90;2.38;;;;;;;;;;4986376;28;20180;-88
2022/04/19 01:31:36;;;;;;;4.60;2.00;;;;;;;;;;4986713;28;20244;-88
2022/04/19 01:34:02;;;;;;;2.85;2.17;;;;;;;;;;4982580;28;20211;-89
2022/04/19 01:36:29;;;;;;;3.30;2.30;;;;;;;;;;4980020;28;20198;-88
2022/04/19 01:38:55;;;;;;;6.40;2.80;;;;;;;;;;4970489;28;20604;-87
2022/04/19 01:41:21;;;;;;;2.67;1.95;;;;;;;;;;4985474;28;20318;-88
2022/04/19 01:43:47;;;;;;;7.53;2.22;;;;;;;;;;4985846;28;20247;-88
2022/04/19 01:46:13;;;;;;;3.45;1.92;;;;;;;;;;4983089;28;20658;-87
2022/04/19 01:48:40;;;;;;;4.93;2.85;;;;;;;;;;4982932;28;20199;-87
2022/04/19 01:51:06;;;;;;;3.20;2.65;;;;;;;;;;4986159;28;20203;-88
2022/04/19 01:53:32;;;;;;;3.88;2.30;;;;;;;;;;4983857;28;20185;-88
2022/04/19 01:55:58;;;;;;;5.70;2.57;;;;;;;;;;4985486;28;20192;-87
2022/04/19 01:58:24;;;;;;;3.38;2.30;;;;;;;;;;4981684;28;20446;-87
2022/04/19 02:00:50;;;;;;;3.60;1.95;;;;;;;;;;4983044;28;20184;-88
2022/04/19 02:03:17;;;;;;;2.67;2.47;;;;;;;;;;4983399;28;20184;-88
2022/04/19 02:05:43;;;;;;;5.53;2.25;;;;;;;;;;4991343;28;20505;-88
2022/04/19 02:08:09;;;;;;;3.05;2.00;;;;;;;;;;4986460;28;20203;-87
2022/04/19 02:10:35;;;;;;;3.30;2.55;;;;;;;;;;4983281;28;20187;-87
2022/04/19 02:13:01;;;;;;;2.03;1.40;;;;;;;;;;4983361;28;20208;-87
2022/04/19 02:15:27;;;;;;;4.00;2.47;;;;;;;;;;4980385;28;20235;-87
2022/04/19 02:17:53;;;;;;;2.40;1.63;;;;;;;;;;4983446;28;20439;-87
2022/04/19 02:20:19;;;;;;;2.38;2.15;;;;;;;;;;4985560;28;20499;-87
2022/04/19 02:22:46;;;;;;;3.75;1.80;;;;;;;;;;4983549;28;20160;-87
2022/04/19 02:25:12;;;;;;;3.22;2.10;;;;;;;;;;4983593;28;20187;-87
2022/04/19 02:27:40;;;;;;;7.60;2.70;;;;;;;;;;4982879;28;20218;-89
2022/04/19 02:30:07;;;;;;;3.33;1.98;;;;;;;;;;4995660;28;20194;-87
2022/04/19 02:32:33;;;;;;;3.88;1.92;;;;;;;;;;4982699;28;20266;-88
2022/04/19 02:35:00;;;;;;;3.45;1.95;;;;;;;;;;4985709;28;20350;-87
2022/04/19 02:37:28;;;;;;;2.70;1.75;;;;;;;;;;4982425;28;20596;-88
2022/04/19 02:39:54;;;;;;;4.50;2.00;;;;;;;;;;4982716;28;20230;-88
2022/04/19 02:42:20;;;;;;;2.45;1.83;;;;;;;;;;4983997;28;20183;-88
2022/04/19 02:44:46;;;;;;;3.63;2.00;;;;;;;;;;4982404;28;20193;-88
2022/04/19 02:47:15;;;;;;;2.33;1.80;;;;;;;;;;4994022;28;20199;-87
2022/04/19 02:49:41;;;;;;;4.00;2.88;;;;;;;;;;4984295;28;20186;-88
2022/04/19 02:52:07;;;;;;;1.40;1.30;;;;;;;;;;4986143;28;20207;-88
2022/04/19 02:54:33;;;;;;;5.32;2.17;;;;;;;;;;4981469;28;20223;-87
2022/04/19 02:56:59;;;;;;;2.80;1.70;;;;;;;;;;4982986;28;22469;-87
2022/04/19 02:59:25;;;;;;;3.30;1.95;;;;;;;;;;4982063;28;20207;-87
2022/04/19 03:01:51;;;;;;;3.40;1.73;;;;;;;;;;4983513;28;20546;-88
2022/04/19 03:04:18;;;;;;;3.15;1.98;;;;;;;;;;4982856;28;20506;-87
2022/04/19 03:06:44;;;;;;;5.53;2.47;;;;;;;;;;4984981;28;20183;-88
2022/04/19 03:09:10;;;;;;;4.70;2.20;;;;;;;;;;4982805;28;20183;-88
2022/04/19 03:11:36;;;;;;;1.73;1.48;;;;;;;;;;4983551;28;20279;-88
2022/04/19 03:14:02;;;;;;;2.95;1.75;;;;;;;;;;4985260;28;20199;-87
2022/04/19 03:16:28;;;;;;;4.30;2.03;;;;;;;;;;4981338;28;20190;-88
2022/04/19 03:18:54;;;;;;;3.05;1.65;;;;;;;;;;4982418;28;20184;-88
2022/04/19 03:21:20;;;;;;;4.53;1.73;;;;;;;;;;4981468;28;20211;-87
2022/04/19 03:29:15;;;;;;;3.30;1.75;;;;;;;;;;4985077;28;20194;-88
2022/04/19 03:31:42;;;;;;;3.00;1.70;;;;;;;;;;4982766;28;20655;-88
2022/04/19 03:34:08;;;;;;;2.60;1.40;;;;;;;;;;4980910;28;20219;-87
2022/04/19 03:36:34;;;;;;;5.30;1.73;;;;;;;;;;4980959;28;20191;-87
2022/04/19 03:39:00;;;;;;;4.75;1.90;;;;;;;;;;4981220;28;20192;-87
2022/04/19 03:41:26;;;;;;;2.33;1.50;;;;;;;;;;4983751;28;20203;-88
2022/04/19 03:43:52;;;;;;;3.78;1.75;;;;;;;;;;4984035;28;20180;-88
2022/04/19 03:46:18;;;;;;;3.97;1.67;;;;;;;;;;4982728;28;20287;-87
2022/04/19 03:48:44;;;;;;;4.78;1.35;;;;;;;;;;4982552;28;20199;-87
2022/04/19 03:51:10;;;;;;;2.25;1.77;;;;;;;;;;4991561;28;20655;-87
2022/04/19 03:53:36;;;;;;;2.65;2.05;;;;;;;;;;4983014;28;20227;-87
2022/04/19 03:56:06;;;;;;;2.65;1.48;;;;;;;;;;4984666;28;20241;-87
2022/04/19 03:58:32;;;;;;;2.55;1.60;;;;;;;;;;4982795;28;20191;-87
2022/04/19 04:01:01;;;;;;;3.95;1.50;;;;;;;;;;4979994;28;20179;-87
2022/04/19 04:03:28;;;;;;;1.75;1.55;;;;;;;;;;4981762;28;20188;-87
2022/04/19 04:05:55;;;;;;;3.13;1.58;;;;;;;;;;4982128;28;20243;-87
2022/04/19 04:08:21;;;;;;;4.25;2.10;;;;;;;;;;4983649;28;20244;-87
2022/04/19 04:10:47;;;;;;;3.95;1.65;;;;;;;;;;4984650;28;20187;-88
2022/04/19 04:13:13;;;;;;;2.93;2.30;;;;;;;;;;4982532;28;20184;-87
2022/04/19 04:15:39;;;;;;;1.95;1.70;;;;;;;;;;4980613;28;20458;-86
2022/04/19 04:18:05;;;;;;;3.67;2.45;;;;;;;;;;4980393;28;20347;-87
2022/04/19 04:20:31;;;;;;;2.53;1.65;;;;;;;;;;4980730;28;20188;-87
2022/04/19 04:22:57;;;;;;;9.15;2.70;;;;;;;;;;4983396;28;20179;-86
2022/04/19 04:25:23;;;;;;;4.80;1.95;;;;;;;;;;4980823;28;20310;-88
2022/04/19 04:27:49;;;;;;;3.30;2.15;;;;;;;;;;4981409;28;20183;-86
2022/04/19 04:30:15;;;;;;;2.92;1.67;;;;;;;;;;4980945;28;20188;-86
2022/04/19 04:32:42;;;;;;;4.93;2.13;;;;;;;;;;4979547;28;20394;-86
2022/04/19 04:35:09;;;;;;;2.47;1.80;;;;;;;;;;4990040;28;20215;-86
2022/04/19 04:37:35;;;;;;;5.68;1.90;;;;;;;;;;4982896;28;20176;-86
2022/04/19 04:40:01;;;;;;;2.97;1.85;;;;;;;;;;4980183;28;20492;-87
2022/04/19 04:42:27;;;;;;;5.13;2.60;;;;;;;;;;4981262;28;20180;-87
2022/04/19 04:44:53;;;;;;;10.27;2.10;;;;;;;;;;4981172;28;20215;-87
2022/04/19 04:50:03;;;;;;;5.47;2.05;;;;;;;;;;4985535;28;20243;-87
2022/04/19 04:52:29;;;;;;;2.53;1.85;;;;;;;;;;4983884;28;20175;-88
2022/04/19 04:54:55;;;;;;;5.07;1.92;;;;;;;;;;4985085;28;20270;-88
2022/04/19 04:57:21;;;;;;;6.32;2.05;;;;;;;;;;4983938;28;20183;-87
2022/04/19 04:59:48;;;;;;;9.75;2.78;;;;;;;;;;4984005;28;20207;-87
2022/04/19 05:02:14;;;;;;;4.05;2.10;;;;;;;;;;4986157;28;20280;-88
2022/04/19 05:04:40;;;;;;;5.10;2.00;;;;;;;;;;4984186;28;20214;-90
2022/04/19 05:07:06;;;;;;;6.50;1.95;;;;;;;;;;4985049;28;20195;-91
2022/04/19 05:09:33;;;;;;;6.45;1.90;;;;;;;;;;4984271;28;20188;-90
2022/04/19 05:11:59;;;;;;;5.68;2.10;;;;;;;;;;4983929;28;20260;-89
2022/04/19 05:14:25;;;;;;;7.90;1.83;;;;;;;;;;4985452;28;20222;-88
2022/04/19 05:16:51;;;;;;;6.85;1.92;;;;;;;;;;4987587;28;20176;-88
2022/04/19 05:19:17;;;;;;;2.10;1.55;;;;;;;;;;4982081;28;20195;-88
2022/04/19 05:21:43;;;;;;;3.63;1.90;;;;;;;;;;4984152;28;20191;-90
2022/04/19 05:24:11;;;;;;;3.42;1.90;;;;;;;;;;4997003;28;20274;-89
2022/04/19 05:26:37;;;;;;;4.80;2.92;;;;;;;;;;4983673;28;20184;-88
2022/04/19 05:29:04;;;;;;;4.80;2.47;;;;;;;;;;4987870;28;20176;-87
2022/04/19 05:31:30;;;;;;;9.38;2.58;;;;;;;;;;4984019;28;20227;-87
2022/04/19 05:33:56;;;;;;;5.28;2.55;;;;;;;;;;4983941;28;20300;-88
2022/04/19 05:36:23;;;;;;;8.37;2.97;;;;;;;;;;4982122;28;20187;-87
2022/04/19 05:38:52;;;;;;;7.40;3.10;;;;;;;;;;4983299;28;20435;-88
2022/04/19 05:41:18;;;;;;;4.63;2.65;;;;;;;;;;4998504;28;20290;-86
2022/04/19 05:43:44;;;;;;;9.13;2.95;;;;;;;;;;4985908;28;20172;-88
2022/04/19 05:46:10;;;;;;;11.85;3.42;;;;;;;;;;4984950;28;20254;-87
2022/04/19 05:48:36;;;;;;;6.67;3.40;;;;;;;;;;4983843;28;20198;-87
2022/04/19 05:51:05;;;;;;;13.90;2.97;;;;;;;;;;4982734;28;20447;-88
2022/04/19 05:53:31;;;;;;;6.88;3.35;;;;;;;;;;4984829;28;20463;-89
2022/04/19 05:55:57;;;;;;;9.98;4.15;;;;;;;;;;4985466;28;20243;-89
2022/04/19 05:58:23;;;;;;;9.95;4.03;;;;;;;;;;4985354;28;20192;-89
2022/04/19 06:00:49;;;;;;;6.53;3.40;;;;;;;;;;4984443;28;20184;-88
2022/04/19 06:05:59;;;;;;;16.10;5.00;;;;;;;;;;4984549;28;20203;-90
2022/04/19 06:08:25;;;;;;;9.47;4.47;;;;;;;;;;4984421;28;20184;-89
2022/04/19 06:10:51;;;;;;;7.43;4.50;;;;;;;;;;4987493;28;20750;-91
2022/04/19 06:13:17;;;;;;;14.93;5.37;;;;;;;;;;4990999;28;20179;-90
2022/04/19 06:15:43;;;;;;;7.85;4.75;;;;;;;;;;4990567;28;20494;-91
2022/04/19 06:18:09;;;;;;;11.48;5.00;;;;;;;;;;4980644;28;20198;-89
2022/04/19 06:20:35;;;;;;;12.63;5.22;;;;;;;;;;4983242;28;20192;-89
2022/04/19 06:23:01;;;;;;;8.38;4.65;;;;;;;;;;4987493;28;20207;-87
2022/04/19 06:25:27;;;;;;;7.70;4.50;;;;;;;;;;4981833;28;20274;-91
2022/04/19 06:27:57;;;;;;;7.07;4.05;;;;;;;;;;4983408;28;20443;-89
2022/04/19 06:30:24;;;;;;;6.60;4.22;;;;;;;;;;4989090;28;20203;-87
2022/04/19 06:32:50;;;;;;;13.35;5.25;;;;;;;;;;4981795;28;20283;-88
2022/04/19 06:35:16;;;;;;;16.27;5.63;;;;;;;;;;4986685;28;20231;-91
2022/04/19 06:37:42;;;;;;;10.55;4.85;;;;;;;;;;4984906;28;20180;-87
2022/04/19 06:40:09;;;;;;;16.10;5.05;;;;;;;;;;4979780;28;20408;-89
2022/04/19 06:42:35;;;;;;;9.70;4.93;;;;;;;;;;4980527;28;20180;-90
2022/04/19 06:45:01;;;;;;;8.88;5.30;;;;;;;;;;4978090;28;20226;-87
2022/04/19 06:47:27;;;;;;;8.10;3.80;;;;;;;;;;4976055;28;20196;-86
2022/04/19 06:49:57;;;;;;;12.45;4.45;;;;;;;;;;4981389;28;20243;-88
2022/04/19 06:52:23;;;;;;;6.78;5.18;;;;;;;;;;4979831;28;20188;-85
2022/04/19 06:54:49;;;;;;;8.15;6.00;;;;;;;;;;4980266;28;20230;-86
2022/04/19 06:57:15;;;;;;;15.27;4.40;;;;;;;;;;4979773;28;20662;-87
2022/04/19 06:59:41;;;;;;;7.80;4.40;;;;;;;;;;4979568;28;20475;-86
2022/04/19 07:02:07;;;;;;;10.55;5.68;;;;;;;;;;4978749;28;20431;-88
2022/04/19 07:04:33;;;;;;;7.55;4.80;;;;;;;;;;4971267;28;20188;-88
2022/04/19 07:06:59;;;;;;;9.55;4.88;;;;;;;;;;4974292;28;20271;-88
2022/04/19 07:09:26;;;;;;;7.95;4.50;;;;;;;;;;4984234;28;20188;-89
2022/04/19 07:11:52;;;;;;;4.85;3.58;;;;;;;;;;4979844;28;20190;-88
2022/04/19 07:14:18;;;;;;;7.80;4.93;;;;;;;;;;4979577;28;20207;-88
2022/04/19 07:16:44;;;;;;;9.90;3.92;;;;;;;;;;4980376;28;20187;-89
2022/04/19 07:19:11;;;;;;;9.55;5.03;;;;;;;;;;4983218;28;20187;-88
2022/04/19 07:27:06;;;;;;;12.05;4.72;;;;;;;;;;4977694;28;20540;-91
2022/04/19 07:29:32;;;;;;;8.07;3.80;;;;;;;;;;4972049;28;20188;-88
2022/04/19 07:31:58;;;;;;;8.10;5.80;;;;;;;;;;4984425;28;20510;-89
2022/04/19 07:34:24;;;;;;;10.23;4.13;;;;;;;;;;4979149;28;20513;-88
2022/04/19 07:36:50;;;;;;;12.45;4.97;;;;;;;;;;4979910;28;20438;-88
2022/04/19 07:39:17;;;;;;;9.80;4.10;;;;;;;;;;4979918;28;20188;-89
2022/04/19 07:41:45;;;;;;;13.88;4.38;;;;;;;;;;4979758;28;20180;-89
2022/04/19 07:44:11;;;;;;;6.38;3.83;;;;;;;;;;4976842;28;20184;-87
2022/04/19 07:46:37;;;;;;;5.55;4.05;;;;;;;;;;4980254;28;20275;-87
2022/04/19 07:49:04;;;;;;;11.50;3.53;;;;;;;;;;4977014;28;20215;-87
2022/04/19 07:51:30;;;;;;;6.43;3.33;;;;;;;;;;4980388;28;20191;-87
2022/04/19 07:53:57;;;;;;;8.27;3.97;;;;;;;;;;4976399;28;20236;-88
2022/04/19 07:56:23;;;;;;;9.13;3.33;;;;;;;;;;4980883;28;20177;-87
2022/04/19 07:58:49;;;;;;;7.85;4.25;;;;;;;;;;4982968;28;20276;-90
2022/04/19 08:01:15;;;;;;;5.90;3.67;;;;;;;;;;4980672;28;20191;-86
2022/04/19 08:03:42;;;;;;;7.50;3.83;;;;;;;;;;4978431;28;20184;-87
2022/04/19 08:06:08;;;;;;;7.25;3.80;;;;;;;;;;4970251;28;20179;-90
2022/04/19 08:08:35;;;;;;;5.15;3.95;;;;;;;;;;4986148;28;20196;-85
2022/04/19 08:11:01;;;;;;;5.18;3.30;;;;;;;;;;4982548;28;20179;-86
2022/04/19 08:13:27;;;;;;;7.10;3.42;;;;;;;;;;4980926;28;20242;-84
2022/04/19 08:15:53;;;;;;;6.07;3.35;;;;;;;;;;4980432;28;20188;-86
2022/04/19 08:18:19;;;;;;;7.83;4.13;;;;;;;;;;4980982;28;20184;-86
2022/04/19 08:20:46;;;;;;;6.50;3.80;;;;;;;;;;4979971;28;20530;-87
2022/04/19 08:23:12;;;;;;;6.20;3.75;;;;;;;;;;4983596;28;20430;-87
2022/04/19 08:25:39;;;;;;;9.30;3.28;;;;;;;;;;4980311;28;20192;-89
2022/04/19 08:28:06;;;;;;;5.63;3.58;;;;;;;;;;4979721;28;20193;-87
2022/04/19 08:30:32;;;;;;;11.23;4.22;;;;;;;;;;4979153;28;20184;-88
2022/04/19 08:32:58;;;;;;;3.13;2.72;;;;;;;;;;4978891;28;20224;-85
2022/04/19 08:35:25;;;;;;;11.05;4.35;;;;;;;;;;4974894;28;20244;-86
2022/04/19 08:37:51;;;;;;;6.72;3.65;;;;;;;;;;4981841;28;20198;-89
2022/04/19 08:40:18;;;;;;;8.23;3.72;;;;;;;;;;4978400;28;20184;-87
2022/04/19 08:42:44;;;;;;;6.90;4.05;;;;;;;;;;4984649;28;20183;-86
2022/04/19 08:45:11;;;;;;;5.30;3.67;;;;;;;;;;4985551;28;20256;-87
2022/04/19 08:47:38;;;;;;;8.95;4.38;;;;;;;;;;4978446;28;20253;-87
2022/04/19 08:50:06;;;;;;;6.78;3.53;;;;;;;;;;4982858;28;20252;-86
2022/04/19 08:52:35;;;;;;;7.22;4.10;;;;;;;;;;4984018;28;20188;-85
2022/04/19 08:57:46;;;;;;;5.95;4.43;;;;;;;;;;4982607;28;20187;-87
2022/04/19 09:00:12;;;;;;;5.82;3.53;;;;;;;;;;4981716;28;20330;-85
2022/04/19 09:02:38;;;;;;;8.98;4.45;;;;;;;;;;4981390;28;20211;-88
2022/04/19 09:05:19;;;;;;;14.18;4.97;;;;;;;;;;4983056;28;20729;-87
2022/04/19 09:07:46;;;;;;;10.10;5.05;;;;;;;;;;4984453;28;20312;-87
2022/04/19 09:10:15;;;;;;;7.15;3.55;;;;;;;;;;4979793;28;20218;-88
2022/04/19 09:13:01;;;;;;;9.75;4.65;;;;;;;;;;4981518;28;20191;-90
2022/04/19 09:15:33;;;;;;;13.98;4.80;;;;;;;;;;4979663;28;20528;-89
2022/04/19 09:18:00;;;;;;;9.68;4.28;;;;;;;;;;4980347;28;20190;-84
2022/04/19 09:20:26;;;;;;;8.00;3.55;;;;;;;;;;4981042;28;20232;-84
2022/04/19 09:23:05;;;;;;;10.15;4.50;;;;;;;;;;4980589;28;20187;-84
2022/04/19 09:25:32;;;;;;;9.73;4.85;;;;;;;;;;4981107;28;20206;-85
2022/04/19 09:27:59;;;;;;;6.43;4.07;;;;;;;;;;4982920;28;20194;-84
2022/04/19 09:30:25;;;;;;;19.23;5.97;;;;;;;;;;4978268;28;20662;-85
2022/04/19 09:33:11;;;;;;;7.68;4.30;;;;;;;;;;4977814;28;20220;-81
2022/04/19 09:35:37;;;;;;;12.57;4.60;;;;;;;;;;4977704;28;20252;-84
2022/04/19 09:38:04;;;;;;;8.00;4.47;;;;;;;;;;4974968;28;20177;-85
2022/04/19 09:40:31;;;;;;;7.50;4.90;;;;;;;;;;4977695;28;20186;-85
2022/04/19 09:42:57;;;;;;;9.38;4.75;;;;;;;;;;4981038;28;20195;-84
2022/04/19 09:45:23;;;;;;;4.80;3.70;;;;;;;;;;4979543;28;20225;-85
2022/04/19 09:47:50;;;;;;;8.98;6.05;;;;;;;;;;4982395;28;20212;-84
2022/04/19 09:50:16;;;;;;;8.25;3.90;;;;;;;;;;4983012;28;20211;-84
2022/04/19 09:52:48;;;;;;;9.52;3.85;;;;;;;;;;4972104;28;20199;-83
2022/04/19 09:55:14;;;;;;;8.02;4.88;;;;;;;;;;4979833;28;20208;-84
2022/04/19 09:57:41;;;;;;;5.80;3.90;;;;;;;;;;4978434;28;20183;-84
2022/04/19 10:00:14;;;;;;;9.20;4.20;;;;;;;;;;4983745;28;20274;-84
2022/04/19 10:08:11;;;;;;;8.80;4.90;;;;;;;;;;4986053;28;20206;-84
2022/04/19 10:10:42;;;;;;;7.38;4.45;;;;;;;;;;4984443;28;20183;-84
2022/04/19 10:13:08;;;;;;;5.35;4.47;;;;;;;;;;4982138;28;20555;-84
2022/04/19 10:15:38;;;;;;;6.47;4.30;;;;;;;;;;4980238;28;20215;-84
2022/04/19 10:18:04;;;;;;;6.93;4.05;;;;;;;;;;4983964;28;20203;-84
2022/04/19 10:20:32;;;;;;;6.90;4.78;;;;;;;;;;4970963;28;20265;-84
2022/04/19 10:23:08;;;;;;;11.10;4.05;;;;;;;;;;4984334;28;20176;-85
2022/04/19 10:25:44;;;;;;;6.22;5.00;;;;;;;;;;4979023;28;20183;-85
2022/04/19 10:28:14;;;;;;;8.70;3.83;;;;;;;;;;4982454;28;20191;-83
2022/04/19 10:30:52;;;;;;;5.05;3.55;;;;;;;;;;4981259;28;20191;-85
2022/04/19 10:33:37;;;;;;;7.47;4.28;;;;;;;;;;4975060;28;20730;-84
2022/04/19 10:36:35;;;;;;;6.60;4.45;;;;;;;;;;4974453;28;20641;-85
2022/04/19 10:39:07;;;;;;;6.93;4.07;;;;;;;;;;4897939;29;20242;-87
2022/04/19 10:41:49;;;;;;;8.77;5.05;;;;;;;;;;4889047;29;20202;-86
2022/04/19 10:44:31;;;;;;;6.68;4.97;;;;;;;;;;4872024;29;20171;-83
2022/04/19 10:47:05;;;;;;;6.30;4.30;;;;;;;;;;4903442;29;20220;-83
2022/04/19 10:49:31;;;;;;;7.47;4.75;;;;;;;;;;4876466;29;20195;-83
2022/04/19 10:52:00;;;;;;;8.25;6.47;;;;;;;;;;4875895;29;20184;-84
2022/04/19 10:54:45;;;;;;;9.95;5.65;;;;;;;;;;4888584;29;20215;-83
2022/04/19 10:58:06;;;;;;;7.05;5.30;;;;;;;;;;4873181;29;20276;-84
2022/04/19 11:00:23;;;;;;;6.15;4.43;;;;;;;;;;4878902;29;20254;-84
2022/04/19 11:03:00;;;;;;;7.40;3.90;;;;;;;;;;4888198;29;20191;-87
2022/04/19 11:05:45;;;;;;;7.75;4.60;;;;;;;;;;4873060;29;20202;-84
2022/04/19 11:08:23;;;;;;;7.03;4.03;;;;;;;;;;4899498;29;20198;-84
2022/04/19 11:10:50;;;;;;;7.80;5.10;;;;;;;;;;4870693;29;20191;-85
2022/04/19 11:13:16;;;;;;;9.60;4.70;;;;;;;;;;4885950;29;20273;-85
2022/04/19 11:15:42;;;;;;;5.88;3.72;;;;;;;;;;4974384;28;20250;-85
2022/04/19 11:18:25;;;;;;;7.88;4.50;;;;;;;;;;4975353;28;20188;-86
2022/04/19 11:20:57;;;;;;;5.57;4.05;;;;;;;;;;4973187;28;20175;-84
2022/04/19 11:23:24;;;;;;;3.83;3.35;;;;;;;;;;4972338;28;20619;-86
2022/04/19 11:25:51;;;;;;;7.68;2.92;;;;;;;;;;4982945;28;20198;-88
2022/04/19 11:28:23;;;;;;;3.72;3.38;;;;;;;;;;4983257;28;20203;-87
2022/04/19 11:30:55;;;;;;;9.60;3.83;;;;;;;;;;4981900;28;20191;-86
2022/04/19 11:33:22;;;;;;;5.15;2.90;;;;;;;;;;4980608;28;20362;-85
2022/04/19 11:36:08;;;;;;;6.18;3.25;;;;;;;;;;4978759;28;20208;-86
2022/04/19 11:38:36;;;;;;;4.28;2.83;;;;;;;;;;4980631;28;20191;-90
2022/04/19 11:46:46;;;;;;;4.60;3.03;;;;;;;;;;4980951;28;20187;-90
2022/04/19 11:49:21;;;;;;;5.95;3.50;;;;;;;;;;4980258;28;20196;-90
2022/04/19 11:51:49;;;;;;;7.88;3.25;;;;;;;;;;4984689;28;20189;-88
2022/04/19 11:54:22;;;;;;;4.25;3.00;;;;;;;;;;4982477;28;20204;-88
2022/04/19 11:56:54;;;;;;;5.22;3.30;;;;;;;;;;4980357;28;20195;-89
2022/04/19 11:59:27;;;;;;;5.15;3.05;;;;;;;;;;4982764;28;20177;-90
2022/04/19 12:01:54;;;;;;;6.60;3.15;;;;;;;;;;4982242;28;20174;-90
2022/04/19 12:04:20;;;;;;;6.75;3.22;;;;;;;;;;4978819;28;20200;-88
2022/04/19 12:06:58;;;;;;;4.18;3.10;;;;;;;;;;4979880;28;20200;-88
2022/04/19 12:09:24;;;;;;;6.88;3.78;;;;;;;;;;4979840;28;20207;-88
2022/04/19 12:11:51;;;;;;;5.70;3.17;;;;;;;;;;4990850;28;20193;-87
2022/04/19 12:14:24;;;;;;;5.82;3.30;;;;;;;;;;4982044;28;20207;-87
2022/04/19 12:17:00;;;;;;;2.90;2.70;;;;;;;;;;4982938;28;20182;-88
2022/04/19 12:19:39;;;;;;;4.93;2.97;;;;;;;;;;4979340;28;20236;-85
2022/04/19 12:22:14;;;;;;;3.20;2.83;;;;;;;;;;4979974;28;20187;-86
2022/04/19 12:24:44;;;;;;;6.87;2.50;;;;;;;;;;4979693;28;20446;-88
2022/04/19 12:27:10;;;;;;;3.50;3.00;;;;;;;;;;4981879;28;21000;-92
2022/04/19 12:29:37;;;;;;;4.50;2.20;;;;;;;;;;4984277;28;20434;-88
2022/04/19 12:32:05;;;;;;;2.80;1.83;;;;;;;;;;4976808;28;20461;-86
2022/04/19 12:34:35;;;;;;;6.60;1.93;;;;;;;;;;4978421;28;20445;-83
2022/04/19 12:37:08;;;;;;;2.90;2.20;;;;;;;;;;4989435;28;20442;-84
2022/04/19 12:39:34;;;;;;;5.30;2.30;;;;;;;;;;4989000;28;20454;-82
2022/04/19 12:42:07;;;;;;;3.53;1.80;;;;;;;;;;4979511;28;20457;-85
2022/04/19 12:44:35;;;;;;;5.17;2.23;;;;;;;;;;4982267;28;20413;-85
2022/04/19 12:47:04;;;;;;;1.83;1.57;;;;;;;;;;4984430;28;20475;-85
2022/04/19 12:49:30;;;;;;;5.77;1.80;;;;;;;;;;4981869;28;20432;-85
2022/04/19 12:52:07;;;;;;;5.30;1.33;;;;;;;;;;4980274;28;20423;-88
2022/04/19 12:54:34;;;;;;;3.53;1.97;;;;;;;;;;4980998;28;20454;-86
2022/04/19 12:57:03;;;;;;;3.67;1.80;;;;;;;;;;4979112;28;20421;-86
2022/04/19 12:59:30;;;;;;;2.10;1.90;;;;;;;;;;4981691;28;20430;-87
2022/04/19 13:01:56;;;;;;;2.40;1.87;;;;;;;;;;4981713;28;20394;-86
2022/04/19 13:04:22;;;;;;;4.30;2.03;;;;;;;;;;4978435;28;20496;-85
2022/04/19 13:12:18;;;;;;;5.40;2.27;;;;;;;;;;4983673;28;20488;-84
2022/04/19 13:14:50;;;;;;;3.20;2.10;;;;;;;;;;4985552;28;20875;-85
2022/04/19 13:17:17;;;;;;;2.57;2.00;;;;;;;;;;4985730;28;20406;-84
2022/04/19 13:19:43;;;;;;;2.63;2.37;;;;;;;;;;4985342;28;20502;-85
2022/04/19 13:22:09;;;;;;;3.70;1.60;;;;;;;;;;4982884;28;20461;-87
2022/04/19 13:24:39;;;;;;;3.90;1.90;;;;;;;;;;4982405;28;20449;-84
2022/04/19 13:27:09;;;;;;;2.43;1.70;;;;;;;;;;4983770;28;20433;-89
2022/04/19 13:29:36;;;;;;;1.70;1.60;;;;;;;;;;4972338;28;20499;-84
2022/04/19 13:32:02;;;;;;;2.57;2.30;;;;;;;;;;4984646;28;20457;-86
2022/04/19 13:34:28;;;;;;;3.67;1.90;;;;;;;;;;4982883;28;20456;-81
2022/04/19 13:36:58;;;;;;;4.73;1.90;;;;;;;;;;4985272;28;20540;-82
2022/04/19 13:39:24;;;;;;;3.83;2.53;;;;;;;;;;4985827;28;20435;-81
2022/04/19 13:41:51;;;;;;;1.77;1.67;;;;;;;;;;4983997;28;20474;-82
2022/04/19 13:44:17;;;;;;;1.80;1.60;;;;;;;;;;4985545;28;20430;-82
2022/04/19 13:46:47;;;;;;;2.17;1.93;;;;;;;;;;4984540;28;20435;-85
2022/04/19 13:49:13;;;;;;;6.83;1.97;;;;;;;;;;4985353;28;20539;-85
2022/04/19 13:51:41;;;;;;;3.00;1.97;;;;;;;;;;4984829;28;20942;-84
2022/04/19 13:54:10;;;;;;;4.07;1.80;;;;;;;;;;4984294;28;20475;-85
2022/04/19 13:56:36;;;;;;;3.07;1.80;;;;;;;;;;4984987;28;20429;-84
2022/04/19 13:59:02;;;;;;;4.73;1.87;;;;;;;;;;4991708;28;20432;-83
2022/04/19 14:01:30;;;;;;;3.30;1.90;;;;;;;;;;4986153;28;20448;-83
2022/04/19 14:03:56;;;;;;;3.50;2.17;;;;;;;;;;4984253;28;20510;-82
2022/04/19 14:06:22;;;;;;;4.60;2.00;;;;;;;;;;4980576;28;20423;-82
2022/04/19 14:08:48;;;;;;;3.03;2.37;;;;;;;;;;4981126;28;20420;-83
2022/04/19 14:11:14;;;;;;;2.93;1.97;;;;;;;;;;4986508;28;20906;-83
2022/04/19 14:13:40;;;;;;;2.77;1.73;;;;;;;;;;4984098;28;20399;-82
2022/04/19 14:16:06;;;;;;;3.80;2.80;;;;;;;;;;4982434;28;20474;-81
2022/04/19 14:18:33;;;;;;;4.77;2.87;;;;;;;;;;4981323;28;20450;-83
2022/04/19 14:20:59;;;;;;;4.10;2.77;;;;;;;;;;4983011;28;20441;-86
2022/04/19 14:23:25;;;;;;;3.73;2.33;;;;;;;;;;4977538;28;20482;-82
2022/04/19 14:25:54;;;;;;;4.10;2.23;;;;;;;;;;4983042;28;20442;-90
2022/04/19 14:28:22;;;;;;;3.50;2.70;;;;;;;;;;4980139;28;20436;-88
2022/04/19 14:33:39;;;;;;;3.83;2.07;;;;;;;;;;4982499;28;20450;-90
2022/04/19 14:36:05;;;;;;;2.42;2.20;;;;;;;;;;4986569;28;20470;-87
2022/04/19 14:38:31;;;;;;;5.70;2.97;;;;;;;;;;4983219;28;20196;-89
2022/04/19 14:40:58;;;;;;;3.50;2.35;;;;;;;;;;4985604;28;20429;-87
2022/04/19 14:43:24;;;;;;;4.18;2.60;;;;;;;;;;4982840;28;20215;-85
2022/04/19 14:45:53;;;;;;;3.80;2.53;;;;;;;;;;4983526;28;20197;-86
2022/04/19 14:48:19;;;;;;;3.65;1.98;;;;;;;;;;4982400;28;20197;-85
2022/04/19 14:53:31;;;;;;;6.93;2.95;;;;;;;;;;4983058;28;20259;-87
2022/04/19 14:55:57;;;;;;;5.13;2.60;;;;;;;;;;4984410;28;20292;-85
2022/04/19 14:58:23;;;;;;;2.63;2.20;;;;;;;;;;4981471;28;20190;-91
2022/04/19 15:00:50;;;;;;;2.47;2.27;;;;;;;;;;4979207;28;20182;-86
2022/04/19 15:03:16;;;;;;;3.38;2.10;;;;;;;;;;4975574;28;21007;-84
2022/04/19 15:05:42;;;;;;;3.23;1.90;;;;;;;;;;4974471;28;20193;-84
2022/04/19 15:08:16;;;;;;;6.55;2.60;;;;;;;;;;4972653;28;20431;-86
2022/04/19 15:10:42;;;;;;;4.57;2.38;;;;;;;;;;4976919;28;20190;-86
2022/04/19 15:13:08;;;;;;;4.70;3.38;;;;;;;;;;4984835;28;20190;-83
2022/04/19 15:15:35;;;;;;;3.45;2.20;;;;;;;;;;4977636;28;20786;-88
2022/04/19 15:18:04;;;;;;;4.75;1.95;;;;;;;;;;4980122;28;20191;-89
2022/04/19 15:20:31;;;;;;;7.43;2.08;;;;;;;;;;4992764;28;20191;-89
2022/04/19 15:22:57;;;;;;;3.60;2.00;;;;;;;;;;4985213;28;20187;-85
2022/04/19 15:25:23;;;;;;;5.03;2.30;;;;;;;;;;4980524;28;20250;-88
2022/04/19 15:27:49;;;;;;;3.42;2.10;;;;;;;;;;4979523;28;20437;-84
2022/04/19 15:30:15;;;;;;;3.10;1.70;;;;;;;;;;4981130;28;20189;-88